createdAt,value
2023-08-14T00:03:42.286Z,85.62
2023-08-14T00:08:45.442Z,86.08
2023-08-14T00:13:52.647Z,86.60
2023-08-14T00:18:55.885Z,86.30
2023-08-14T00:23:58.967Z,85.25
2023-08-14T00:29:02.093Z,84.67
2023-08-14T00:34:05.391Z,83.81
2023-08-14T00:39:08.710Z,84.87
2023-08-14T00:44:11.809Z,84.90
2023-08-14T00:49:15.020Z,84.06
2023-08-14T00:54:18.229Z,83.74
2023-08-14T00:59:21.662Z,83.86
2023-08-14T01:04:25.082Z,83.96
2023-08-14T01:09:28.418Z,83.85
2023-08-14T01:14:34.084Z,83.60
2023-08-14T01:19:43.094Z,83.73
2023-08-14T01:25:01.361Z,86.43
2023-08-14T01:30:04.903Z,87.24
2023-08-14T01:35:08.815Z,86.33
2023-08-14T01:40:24.973Z,84.65
2023-08-14T01:45:31.207Z,84.56
2023-08-14T01:50:34.819Z,84.52
2023-08-14T01:55:37.838Z,84.99
2023-08-14T02:00:41.164Z,85.45
2023-08-14T02:05:44.269Z,86.04
2023-08-14T02:10:47.976Z,84.66
2023-08-14T02:15:51.016Z,84.57
2023-08-14T02:20:54.918Z,84.84
2023-08-14T02:25:58.034Z,85.29
2023-08-14T02:31:03.432Z,86.50
2023-08-14T02:36:06.916Z,87.58
2023-08-14T02:41:10.122Z,88.82
2023-08-14T02:46:13.678Z,89.61
2023-08-14T02:51:18.163Z,88.59
2023-08-14T02:56:21.119Z,86.66
2023-08-14T03:01:24.100Z,85.64
2023-08-14T03:06:31.084Z,85.53
2023-08-14T03:11:34.094Z,85.59
2023-08-14T03:16:37.113Z,86.55
2023-08-14T03:21:42.171Z,88.07
2023-08-14T03:26:45.538Z,88.20
2023-08-14T03:31:49.403Z,88.70
2023-08-14T03:36:52.512Z,89.48
2023-08-14T03:41:55.617Z,88.25
2023-08-14T03:46:58.729Z,88.23
2023-08-14T03:52:01.634Z,87.59
2023-08-14T03:57:04.750Z,86.36
2023-08-14T04:02:07.773Z,87.97
2023-08-14T04:07:10.966Z,87.87
2023-08-14T04:12:14.130Z,83.57
2023-08-14T04:17:17.388Z,76.99
2023-08-14T04:22:20.624Z,72.99
2023-08-14T04:27:24.219Z,72.22
2023-08-14T04:32:27.439Z,71.22
2023-08-14T04:37:30.536Z,70.23
2023-08-14T04:42:34.977Z,64.02
2023-08-14T04:47:38.269Z,57.75
2023-08-14T04:52:41.400Z,58.52
2023-08-14T04:57:44.509Z,58.87
2023-08-14T05:02:47.827Z,50.68
2023-08-14T05:07:51.033Z,49.51
2023-08-14T05:12:54.143Z,47.43
2023-08-14T05:17:57.170Z,44.99
2023-08-14T05:23:00.260Z,42.97
2023-08-14T05:28:04.395Z,42.48
2023-08-14T05:33:07.752Z,41.92
2023-08-14T05:38:10.819Z,40.75
2023-08-14T05:43:14.127Z,37.92
2023-08-14T05:48:17.242Z,38.27
2023-08-14T05:53:20.290Z,36.02
2023-08-14T05:58:23.285Z,36.37
2023-08-14T06:03:42.084Z,35.78
2023-08-14T06:08:47.184Z,35.85
2023-08-14T06:13:50.402Z,35.74
2023-08-14T06:18:54.516Z,34.85
2023-08-14T06:23:58.046Z,34.11
2023-08-14T06:29:01.069Z,33.38
2023-08-14T06:34:04.301Z,32.27
2023-08-14T06:39:08.614Z,31.79
2023-08-14T06:44:12.421Z,31.49
2023-08-14T06:49:15.648Z,31.30
2023-08-14T06:54:18.999Z,32.06
2023-08-14T06:59:22.171Z,31.88
2023-08-14T07:04:25.389Z,30.53
2023-08-14T07:09:28.716Z,29.90
2023-08-14T07:14:32.734Z,29.96
2023-08-14T07:19:37.368Z,29.61
2023-08-14T07:24:40.897Z,29.24
2023-08-14T07:29:44.910Z,30.40
2023-08-14T07:34:49.886Z,30.07
2023-08-14T07:39:53.116Z,30.34
2023-08-14T07:44:56.187Z,30.60
2023-08-14T07:49:59.409Z,32.20
2023-08-14T07:55:06.417Z,34.99
2023-08-14T08:00:10.675Z,37.63
2023-08-14T08:05:14.378Z,40.12
2023-08-14T08:10:17.363Z,41.59
2023-08-14T08:15:20.571Z,42.51
2023-08-14T08:20:23.988Z,43.09
2023-08-14T08:25:27.121Z,44.02
2023-08-14T08:30:30.215Z,45.31
2023-08-14T08:35:33.430Z,46.53
2023-08-14T08:40:37.515Z,44.91
2023-08-14T08:45:47.192Z,42.71
2023-08-14T08:50:51.831Z,40.81
2023-08-14T08:55:55.893Z,40.57
2023-08-14T09:01:00.914Z,41.79
2023-08-14T09:06:06.133Z,43.33
2023-08-14T09:11:10.247Z,44.85
2023-08-14T09:16:28.910Z,45.22
2023-08-14T09:21:33.060Z,45.34
2023-08-14T09:26:44.271Z,46.26
2023-08-14T09:31:53.368Z,46.36
2023-08-14T09:36:59.853Z,46.19
2023-08-14T09:42:05.861Z,46.64
2023-08-14T09:47:09.685Z,46.13
2023-08-14T09:52:13.214Z,44.41
2023-08-14T09:57:18.081Z,45.39
2023-08-14T10:02:24.090Z,45.06
2023-08-14T10:07:28.694Z,45.21
2023-08-14T10:12:38.136Z,44.75
2023-08-14T10:18:00.516Z,44.66
2023-08-14T10:23:03.919Z,44.45
2023-08-14T10:28:08.876Z,44.18
2023-08-14T10:33:13.875Z,43.23
2023-08-14T10:38:25.215Z,43.11
2023-08-14T10:43:30.642Z,43.45
2023-08-14T10:48:38.512Z,43.38
2023-08-14T10:53:42.446Z,43.38
2023-08-14T10:58:49.034Z,43.08
2023-08-14T11:03:59.840Z,42.46
2023-08-14T11:09:05.846Z,42.21
2023-08-14T11:14:10.852Z,42.54
2023-08-14T11:19:20.318Z,42.17
2023-08-14T11:24:25.767Z,42.89
2023-08-14T11:29:32.840Z,42.91
2023-08-14T11:34:40.107Z,41.94
2023-08-14T11:39:52.602Z,41.71
2023-08-14T11:45:05.548Z,42.14
2023-08-14T11:50:11.212Z,42.14
2023-08-14T11:55:17.823Z,41.90
2023-08-14T12:00:30.189Z,40.99
2023-08-14T12:05:37.138Z,39.82
2023-08-14T12:10:41.459Z,38.79
2023-08-14T12:15:44.659Z,38.79
2023-08-14T12:20:55.679Z,39.76
2023-08-14T12:25:58.782Z,39.52
2023-08-14T12:31:01.908Z,39.42
2023-08-14T12:36:05.449Z,39.93
2023-08-14T12:41:08.617Z,40.52
2023-08-14T12:46:12.616Z,39.94
2023-08-14T12:51:15.668Z,39.75
2023-08-14T12:56:19.284Z,39.89
2023-08-14T13:01:24.040Z,40.67
2023-08-14T13:06:29.207Z,41.02
2023-08-14T13:11:32.392Z,40.58
2023-08-14T13:16:35.834Z,40.03
2023-08-14T13:21:38.937Z,39.78
2023-08-14T13:26:42.234Z,39.58
2023-08-14T13:31:45.747Z,40.18
2023-08-14T13:36:48.760Z,40.74
2023-08-14T13:41:51.774Z,41.65
2023-08-14T13:46:54.985Z,42.53
2023-08-14T13:51:57.981Z,42.80
2023-08-14T13:57:01.090Z,43.26
2023-08-14T14:02:04.413Z,43.77
2023-08-14T14:07:07.720Z,44.37
2023-08-14T14:12:10.865Z,44.68
2023-08-14T14:17:15.162Z,44.42
2023-08-14T14:22:18.283Z,44.84
2023-08-14T14:27:21.533Z,45.10
2023-08-14T14:32:24.783Z,45.32
2023-08-14T14:37:27.917Z,45.05
2023-08-14T14:42:30.918Z,44.04
2023-08-14T14:47:33.984Z,43.26
2023-08-14T14:52:37.143Z,43.24
2023-08-14T14:57:40.259Z,43.90
2023-08-14T15:02:43.550Z,44.20
2023-08-14T15:07:47.921Z,44.82
2023-08-14T15:12:50.917Z,45.41
2023-08-14T15:17:54.346Z,45.76
2023-08-14T15:22:57.977Z,46.34
2023-08-14T15:28:01.369Z,46.94
2023-08-14T15:33:04.599Z,47.56
2023-08-14T15:38:08.004Z,47.56
2023-08-14T15:43:11.408Z,47.73
2023-08-14T15:48:14.622Z,47.90
2023-08-14T15:53:17.933Z,48.22
2023-08-14T15:58:21.180Z,48.25
2023-08-14T16:03:25.910Z,48.35
2023-08-14T16:08:32.270Z,48.47
2023-08-14T16:13:35.703Z,48.84
2023-08-14T16:18:40.070Z,49.23
2023-08-14T16:23:43.656Z,49.54
2023-08-14T16:28:47.065Z,49.74
2023-08-14T16:33:51.405Z,49.79
2023-08-14T16:38:55.332Z,49.89
2023-08-14T16:43:58.649Z,50.28
2023-08-14T16:49:02.876Z,50.64
2023-08-14T16:54:08.650Z,50.79
2023-08-14T16:59:12.584Z,51.24
2023-08-14T17:04:15.813Z,51.63
2023-08-14T17:09:19.331Z,52.03
2023-08-14T17:14:22.556Z,52.52
2023-08-14T17:19:26.861Z,53.70
2023-08-14T17:24:30.080Z,53.45
2023-08-14T17:29:36.049Z,53.51
2023-08-14T17:34:39.266Z,54.17
2023-08-14T17:39:42.576Z,55.37
2023-08-14T17:44:45.798Z,56.71
2023-08-14T17:49:48.896Z,56.73
2023-08-14T17:54:51.909Z,56.08
2023-08-14T17:59:55.022Z,56.43
2023-08-14T18:04:58.125Z,56.63
2023-08-14T18:10:01.223Z,57.13
2023-08-14T18:15:05.027Z,57.66
2023-08-14T18:20:09.554Z,59.23
2023-08-14T18:25:12.605Z,59.62
2023-08-14T18:30:15.817Z,61.29
2023-08-14T18:35:18.932Z,61.09
2023-08-14T18:40:22.061Z,61.77
2023-08-14T18:45:28.230Z,62.32
2023-08-14T18:50:31.542Z,62.47
2023-08-14T18:55:41.301Z,62.59
2023-08-14T19:00:44.508Z,63.73
2023-08-14T19:05:56.053Z,64.53
2023-08-14T19:10:59.443Z,64.39
2023-08-14T19:16:02.567Z,64.32
2023-08-14T19:21:05.953Z,64.60
2023-08-14T19:26:22.432Z,65.61
2023-08-14T19:31:30.141Z,67.48
2023-08-14T19:36:34.949Z,67.20
2023-08-14T19:41:37.958Z,68.40
2023-08-14T19:46:41.546Z,68.24
2023-08-14T19:51:44.787Z,67.73
2023-08-14T19:56:47.892Z,67.51
2023-08-14T20:01:51.107Z,66.84
2023-08-14T20:06:54.420Z,67.48
2023-08-14T20:11:58.157Z,67.16
2023-08-14T20:17:01.788Z,67.18
2023-08-14T20:22:05.182Z,68.48
2023-08-14T20:27:09.126Z,68.47
2023-08-14T20:32:12.224Z,68.16
2023-08-14T20:37:15.365Z,68.45
2023-08-14T20:42:18.543Z,68.63
2023-08-14T20:47:21.822Z,69.76
2023-08-14T20:52:25.578Z,70.13
2023-08-14T20:57:28.710Z,70.64
2023-08-14T21:02:31.966Z,71.70
2023-08-14T21:07:35.213Z,71.89
2023-08-14T21:12:38.530Z,70.52
2023-08-14T21:17:41.754Z,70.32
2023-08-14T21:22:46.329Z,70.81
2023-08-14T21:27:50.527Z,70.96
2023-08-14T21:32:53.978Z,70.98
2023-08-14T21:37:57.159Z,71.45
2023-08-14T21:43:01.388Z,71.27
2023-08-14T21:48:04.833Z,72.65
2023-08-14T21:53:08.314Z,73.31
2023-08-14T21:58:11.731Z,72.92
2023-08-14T22:03:14.934Z,72.49
2023-08-14T22:08:18.188Z,72.21
2023-08-14T22:13:21.250Z,72.40
2023-08-14T22:18:25.087Z,73.03
2023-08-14T22:23:31.803Z,76.34
2023-08-14T22:28:34.880Z,76.78
2023-08-14T22:33:37.885Z,76.81
2023-08-14T22:38:40.997Z,76.73
2023-08-14T22:43:44.101Z,76.77
2023-08-14T22:48:47.213Z,77.35
2023-08-14T22:53:50.165Z,79.24
2023-08-14T22:58:53.232Z,78.59
2023-08-14T23:03:56.255Z,76.44
2023-08-14T23:08:59.447Z,76.52
2023-08-14T23:14:02.561Z,76.53
2023-08-14T23:19:06.410Z,77.51
2023-08-14T23:24:09.500Z,79.43
2023-08-14T23:29:12.495Z,79.64
2023-08-14T23:34:15.513Z,78.07
2023-08-14T23:39:21.103Z,78.39
2023-08-14T23:44:24.186Z,79.21
2023-08-14T23:49:27.296Z,82.26
2023-08-14T23:54:32.037Z,82.91
2023-08-14T23:59:35.152Z,83.02
